Terminal Aerodrome Forecast
Issued by NWS

Current Version | Previous Version | Graphics & Text | Print | Product List | Glossary On
Versions: 1 2 3 4 5 6 7 8 9 10 11 12 13 14 15 16 17 18 19 20 21 22 23 24 25 26
000
FTUS41 KRLX 301400 AAA
TAFCKB
TAF AMD
KCKB 301444Z 3015/3112 VRB03KT P6SM BKN040
     FM301700 24006KT P6SM BKN050
     FM310000 00000KT P6SM BKN090
     FM310600 00000KT 4SM BR SCT090=

USA.gov is the U.S. government's official web portal to all federal, state and local government web resources and services.